Auxvasse, Missouri
Current Conditions -  °F | °C
As of 11:54 PM on Wednesday 26 Nov 2014 (Local Time) from KCOU Reporting Station
Overcast Overcast  
Wind Chill: 23°   Ceiling: 1000
Heat Index: 33°   Visibility: 9mi
Dew Point: 30°   Wind: 16mph
Humidity: 89%   Direction: 350°N
Pressure: 30.28"   Gusts: NA
Location:  39.02°N, 91.9°W
Report Text: KCOU 270554Z AUTO 35014KT 9SM OVC010 01/M01 A3028 RMK AO2 RAB32E41 CIG 009V014 SLP261 P0000 60001 I6000 T00061011 10022 20000 400501033 53039
Loading
Personal Weather Stations






























Interactive Weather Map New forecast layout! Learn more

10-Day Weather Forecast

Advertisements
Track Severe Weather on mobile